Terminal Aerodrome Forecast
Issued by NWS Wilmington, OH

Current Version | Previous Version | Graphics & Text | Print | Product List | Glossary On
Versions: 1 2 3 4 5 6 7 8 9 10 11 12 13 14 15 16 17 18 19 20 21
339
FTUS41 KILN 112332
TAFILN
TAF
KILN 112332Z 1200/1224 12006KT P6SM BKN200
     FM120700 25012G22KT P6SM BKN022
     FM120900 29015G25KT P6SM VCSH OVC015
     FM121300 31016G32KT 3SM -SHSN OVC012
     FM121900 30016G31KT P6SM VCSH OVC022=

USA.gov is the U.S. government's official web portal to all federal, state and local government web resources and services.